Time;durP1;ratioP1;P1;durP2;ratioP2;P2;SDS_P1;SDS_P2;PMS_P1;PMS_P2;Temp;Humidity;BMP_temperature;BMP_pressure;BME280_temperature;BME280_humidity;BME280_pressure;Samples;Min_cycle;Max_cycle;Signal;HPM_P1;HPM_P2
2022/09/10 03:17:36;;;;;;;16.00;11.10;;;23.60;99.90;;;;;;5463539;23;20049;-93
2022/09/10 03:24:46;;;;;;;13.23;9.85;;;23.50;99.90;;;;;;4884371;29;20048;-92
2022/09/10 04:01:17;;;;;;;15.32;8.40;;;22.90;99.90;;;;;;4844085;29;19990;-93
2022/09/10 04:04:15;;;;;;;13.88;8.15;;;22.90;99.90;;;;;;4792666;29;20126;-93
2022/09/10 06:07:33;;;;;;;16.85;15.10;;;32.90;99.90;;;;;;4843997;29;20090;-91
2022/09/10 06:10:09;;;;;;;16.50;15.00;;;33.10;99.90;;;;;;4830303;29;20174;-93
2022/09/10 06:12:52;;;;;;;16.77;15.40;;;33.40;99.90;;;;;;4830610;29;20152;-92
2022/09/10 06:15:56;;;;;;;16.92;15.23;;;33.70;99.90;;;;;;4844539;29;20133;-91
2022/09/10 06:18:59;;;;;;;18.75;16.10;;;33.70;99.90;;;;;;4829592;29;20034;-94
2022/09/10 06:22:02;;;;;;;19.65;17.67;;;34.00;99.90;;;;;;4846793;29;20038;-92
2022/09/10 06:24:47;;;;;;;23.95;18.80;;;34.20;99.90;;;;;;4831408;29;20073;-92
2022/09/10 06:34:48;;;;;;;18.23;15.93;;;34.00;99.90;;;;;;5108976;23;20140;-92
2022/09/10 06:37:15;;;;;;;16.92;15.18;;;33.80;99.90;;;;;;4868608;29;20029;-85
2022/09/10 06:39:41;;;;;;;17.80;15.55;;;34.60;99.90;;;;;;4866995;29;20071;-83
2022/09/10 06:42:08;;;;;;;16.90;15.30;;;34.20;99.90;;;;;;4882601;29;20025;-83
2022/09/10 06:44:53;;;;;;;17.55;15.73;;;34.00;99.90;;;;;;4884156;29;20063;-83
2022/09/10 06:47:38;;;;;;;17.73;15.77;;;34.40;99.90;;;;;;4883977;29;20089;-87
2022/09/10 06:50:05;;;;;;;17.17;15.68;;;34.60;99.90;;;;;;4882356;29;20455;-83
2022/09/10 06:52:34;;;;;;;15.55;14.25;;;34.80;99.90;;;;;;4868036;29;20021;-87
2022/09/10 06:55:05;;;;;;;15.52;14.00;;;34.20;99.90;;;;;;4867907;29;20040;-81
2022/09/10 06:57:38;;;;;;;16.23;14.70;;;34.00;99.90;;;;;;4872472;29;20384;-89
2022/09/10 07:11:56;;;;;;;15.02;13.93;;;33.00;99.90;;;;;;5315885;23;20119;-94
2022/09/10 07:14:43;;;;;;;16.17;14.73;;;32.60;99.90;;;;;;4870463;29;20028;-92
2022/09/10 07:19:45;;;;;;;15.25;13.88;;;32.50;99.90;;;;;;5060709;23;20057;-92
2022/09/10 07:22:20;;;;;;;16.25;14.75;;;32.50;99.90;;;;;;4873397;29;20063;-93
2022/09/10 07:24:50;;;;;;;15.27;13.90;;;32.10;99.90;;;;;;4869684;29;20037;-92
2022/09/10 07:27:52;;;;;;;15.02;13.80;;;31.60;99.90;;;;;;4852889;29;20085;-92
2022/09/10 07:30:26;;;;;;;15.48;14.10;;;31.60;99.90;;;;;;4850787;29;20133;-92
2022/09/10 07:33:45;;;;;;;;;;;;;;;;;;;;;
2022/09/10 07:39:44;;;;;;;16.00;14.80;;;31.20;99.90;;;;;;4831118;23;20135;-92
2022/09/10 07:42:11;;;;;;;15.73;14.40;;;31.30;99.90;;;;;;4869272;29;20040;-92
2022/09/10 07:45:16;;;;;;;16.15;14.65;;;31.30;99.90;;;;;;4871113;29;20095;-92
2022/09/10 07:47:55;;;;;;;15.88;14.32;;;31.40;99.90;;;;;;4812584;29;20046;-93
2022/09/10 07:51:00;;;;;;;;;;;;;;;;;;;;;
2022/09/10 07:54:23;;;;;;;15.48;14.15;;;32.10;99.90;;;;;;4826269;29;20563;-92
2022/09/10 08:10:56;;;;;;;16.65;15.10;;;32.90;99.90;;;;;;5139470;23;20075;-92
2022/09/10 08:13:48;;;;;;;17.25;15.70;;;33.00;99.90;;;;;;4903766;29;20032;-91
2022/09/10 08:16:25;;;;;;;16.55;15.20;;;33.00;99.90;;;;;;4888953;29;20039;-92
2022/09/10 08:18:56;;;;;;;17.10;15.38;;;32.90;99.90;;;;;;4874169;29;20391;-92
2022/09/10 08:21:30;;;;;;;17.45;15.10;;;32.30;99.90;;;;;;4871480;29;20036;-92
2022/09/10 08:23:59;;;;;;;16.42;14.90;;;32.10;99.90;;;;;;4868351;29;20135;-88
2022/09/10 08:26:28;;;;;;;18.10;15.68;;;32.70;99.90;;;;;;4872639;29;20033;-86
2022/09/10 08:29:02;;;;;;;16.85;15.30;;;32.80;99.90;;;;;;4870277;29;20058;-86
2022/09/10 08:31:30;;;;;;;16.90;15.38;;;32.80;99.90;;;;;;4874158;29;20123;-87
2022/09/10 08:34:15;;;;;;;17.73;15.95;;;32.70;99.90;;;;;;4884791;29;20092;-86
2022/09/10 08:36:48;;;;;;;18.25;15.50;;;32.50;99.90;;;;;;4868883;29;20064;-88
2022/09/10 08:39:18;;;;;;;17.33;15.77;;;32.20;99.90;;;;;;4873452;29;20032;-88
2022/09/10 08:42:13;;;;;;;17.73;16.00;;;31.80;99.90;;;;;;4872011;29;20040;-90
2022/09/10 08:45:09;;;;;;;17.90;16.13;;;31.70;99.90;;;;;;4792213;29;20539;-90
2022/09/10 08:48:22;;;;;;;;;;;;;;;;;;;;;
2022/09/10 08:51:05;;;;;;;17.63;15.98;;;31.50;99.90;;;;;;4791809;29;20393;-89
2022/09/10 08:53:48;;;;;;;18.52;15.80;;;31.70;99.90;;;;;;4776707;29;20517;-88
2022/09/10 08:56:21;;;;;;;18.08;15.80;;;32.10;99.90;;;;;;4779301;29;20050;-89
2022/09/10 08:59:02;;;;;;;17.02;15.48;;;32.40;99.90;;;;;;4777708;29;20039;-90
2022/09/10 09:04:31;;;;;;;16.88;15.23;;;32.50;99.90;;;;;;4917523;23;20116;-79
2022/09/10 09:07:02;;;;;;;16.55;15.00;;;32.40;99.90;;;;;;4904224;29;20498;-84
2022/09/10 09:09:30;;;;;;;17.40;15.35;;;32.20;99.90;;;;;;4872513;29;20490;-91
2022/09/10 09:12:38;;;;;;;17.67;15.80;;;32.10;99.90;;;;;;4875085;29;20029;-91
2022/09/10 09:15:26;;;;;;;18.58;15.77;;;32.30;99.90;;;;;;4844542;29;20100;-84
2022/09/10 09:18:11;;;;;;;17.80;16.00;;;32.50;99.90;;;;;;4902860;29;20029;-82
2022/09/10 09:23:57;;;;;;;16.42;14.88;;;32.50;99.90;;;;;;4922877;29;20506;-86
2022/09/10 09:26:35;;;;;;;17.92;16.27;;;32.60;99.90;;;;;;4891352;29;20031;-87
2022/09/10 09:29:12;;;;;;;;;;;32.90;99.90;;;;;;4908745;29;20096;-94
2022/09/10 09:31:48;;;;;;;17.15;15.68;;;33.10;99.90;;;;;;4896831;29;19911;-92
2022/09/10 09:34:34;;;;;;;19.92;16.10;;;33.10;99.90;;;;;;4893060;29;20482;-91
2022/09/10 09:37:04;;;;;;;17.38;15.60;;;32.90;99.90;;;;;;4914324;29;20079;-85
2022/09/10 09:40:05;;;;;;;17.75;15.85;;;32.90;99.90;;;;;;4892454;29;20398;-88
2022/09/10 09:42:55;;;;;;;16.83;15.32;;;32.60;99.90;;;;;;4890578;29;20036;-90
2022/09/10 09:45:44;;;;;;;16.40;15.00;;;32.70;99.90;;;;;;4891547;29;20394;-91
2022/09/10 09:48:17;;;;;;;16.98;15.20;;;32.50;99.90;;;;;;4890509;29;20040;-90
2022/09/10 09:50:58;;;;;;;16.63;14.88;;;32.30;99.90;;;;;;4932706;23;20064;-88
2022/09/10 09:53:26;;;;;;;16.85;14.60;;;32.60;99.90;;;;;;4900423;29;20040;-89
2022/09/10 09:55:54;;;;;;;16.38;14.98;;;32.70;99.90;;;;;;4890105;29;20033;-90
2022/09/10 09:58:25;;;;;;;16.70;15.10;;;32.90;99.90;;;;;;4902324;29;20046;-92
2022/09/10 10:01:03;;;;;;;17.48;15.80;;;33.10;99.90;;;;;;4901829;29;20036;-87
2022/09/10 10:06:10;;;;;;;17.23;15.55;;;33.20;99.90;;;;;;5056261;23;20071;-92
2022/09/10 10:08:44;;;;;;;17.13;14.93;;;32.50;99.90;;;;;;4885024;29;20035;-93
2022/09/10 10:11:17;;;;;;;;;;;32.00;99.90;;;;;;5411382;23;20080;-93
2022/09/10 10:13:51;;;;;;;16.17;14.85;;;31.80;99.90;;;;;;4865249;29;19912;-94
2022/09/10 10:16:34;;;;;;;16.50;15.23;;;32.10;99.90;;;;;;4866454;29;20037;-94
2022/09/10 10:19:02;;;;;;;16.75;15.25;;;32.30;99.90;;;;;;4865755;29;20078;-94
2022/09/10 10:21:33;;;;;;;17.15;15.45;;;32.70;99.90;;;;;;4881060;29;20026;-94
2022/09/10 10:24:04;;;;;;;16.88;15.15;;;33.10;99.90;;;;;;4864641;29;20128;-94
2022/09/10 10:26:34;;;;;;;16.02;14.60;;;33.20;99.90;;;;;;4864455;29;20391;-94
2022/09/10 10:29:20;;;;;;;16.88;15.15;;;32.70;99.90;;;;;;4864403;29;20026;-93
2022/09/10 10:31:50;;;;;;;15.70;14.40;;;32.50;99.90;;;;;;4866832;29;20034;-94
2022/09/10 10:35:04;;;;;;;16.75;15.35;;;32.60;99.90;;;;;;4865343;29;20483;-96
2022/09/10 10:38:05;;;;;;;16.38;15.23;;;32.70;99.90;;;;;;4833586;29;20060;-94
2022/09/10 10:40:56;;;;;;;17.40;15.68;;;32.90;99.90;;;;;;4845543;29;20080;-94
2022/09/10 10:43:49;;;;;;;18.30;16.50;;;33.30;99.90;;;;;;4866467;29;20045;-93
2022/09/10 10:46:22;;;;;;;16.92;15.23;;;33.40;99.90;;;;;;4864891;29;20065;-94
2022/09/10 10:49:07;;;;;;;16.52;14.95;;;33.40;99.90;;;;;;4865368;29;20472;-94
2022/09/10 10:56:45;;;;;;;16.30;15.10;;;33.40;99.90;;;;;;4871981;29;20053;-95
2022/09/10 15:47:51;;;;;;;14.38;12.80;;;29.40;99.90;;;;;;4856056;23;20500;-92
2022/09/10 15:50:46;;;;;;;13.80;12.40;;;29.50;99.90;;;;;;4876418;29;20080;-93
2022/09/10 15:53:12;;;;;;;13.13;12.02;;;29.40;99.90;;;;;;4883792;29;20095;-93
2022/09/10 15:55:39;;;;;;;13.05;12.02;;;29.20;99.90;;;;;;4868328;29;20028;-93
2022/09/10 15:58:06;;;;;;;14.57;13.10;;;29.20;99.90;;;;;;4883888;29;20040;-93
2022/09/10 16:00:35;;;;;;;13.32;12.10;;;29.20;99.90;;;;;;4868089;29;20035;-93
2022/09/10 16:03:04;;;;;;;12.82;11.77;;;29.20;99.90;;;;;;4868288;29;20041;-94
2022/09/10 16:06:05;;;;;;;12.50;11.60;;;29.10;99.90;;;;;;4871351;29;20036;-95
2022/09/10 16:08:40;;;;;;;13.00;11.90;;;29.10;99.90;;;;;;4884579;29;20040;-92
2022/09/10 16:11:14;;;;;;;12.80;11.75;;;28.90;99.90;;;;;;4868013;29;20033;-93
2022/09/10 16:13:44;;;;;;;12.82;11.85;;;28.80;99.90;;;;;;4883178;29;20064;-92
2022/09/10 16:16:25;;;;;;;12.45;11.27;;;28.70;99.90;;;;;;4868083;29;20496;-94
2022/09/10 16:18:56;;;;;;;15.52;11.13;;;28.50;99.90;;;;;;4868554;29;20064;-93
2022/09/10 16:21:27;;;;;;;16.27;10.20;;;28.30;99.90;;;;;;4867970;29;20033;-94
2022/09/10 16:23:56;;;;;;;10.75;8.85;;;28.20;99.90;;;;;;4867850;29;20459;-93
2022/09/10 16:26:32;;;;;;;9.68;8.75;;;27.90;99.90;;;;;;4868556;29;20032;-94
2022/09/10 16:29:05;;;;;;;9.40;8.27;;;27.70;99.90;;;;;;4883059;29;20498;-92
2022/09/10 16:31:34;;;;;;;10.70;7.80;;;27.40;99.90;;;;;;4867921;29;20037;-92
2022/09/10 16:34:03;;;;;;;9.73;7.35;;;27.20;99.90;;;;;;4867398;29;20040;-93
2022/09/10 16:36:36;;;;;;;11.35;7.18;;;27.10;99.90;;;;;;4868493;29;20032;-92
2022/09/10 16:39:10;;;;;;;12.45;7.45;;;27.00;99.90;;;;;;4867939;29;20035;-94
2022/09/10 16:41:37;;;;;;;;;;;26.90;99.90;;;;;;4883381;29;20033;-94
2022/09/10 16:44:04;;;;;;;9.52;7.03;;;26.90;99.90;;;;;;4882708;29;19919;-92
2022/09/10 16:46:30;;;;;;;23.30;8.13;;;26.90;99.90;;;;;;4867755;29;20057;-93
2022/09/10 16:49:02;;;;;;;8.23;7.40;;;26.80;99.90;;;;;;4884188;29;20061;-93
2022/09/10 16:51:29;;;;;;;10.05;7.00;;;26.80;99.90;;;;;;4868295;29;20029;-93
2022/09/10 16:54:01;;;;;;;11.73;7.97;;;26.70;99.90;;;;;;4869092;29;20042;-93
2022/09/10 16:56:29;;;;;;;12.45;8.25;;;26.70;99.90;;;;;;4882692;29;20390;-93
2022/09/10 16:58:56;;;;;;;16.08;7.28;;;26.70;99.90;;;;;;4867167;29;20465;-93
2022/09/10 17:01:22;;;;;;;11.38;6.63;;;26.70;99.90;;;;;;4883086;29;20032;-93
2022/09/10 17:10:58;;;;;;;12.30;5.60;;;26.60;99.90;;;;;;5202906;23;20049;-94
2022/09/10 17:13:24;;;;;;;9.60;6.10;;;26.40;99.90;;;;;;4824268;29;20035;-94
2022/09/10 17:15:52;;;;;;;12.63;6.40;;;26.40;99.90;;;;;;4794035;29;20035;-93
2022/09/10 17:18:18;;;;;;;8.48;5.60;;;26.50;99.90;;;;;;4809549;29;20061;-93
2022/09/10 17:20:47;;;;;;;9.85;5.90;;;26.40;99.90;;;;;;4808949;29;20035;-94
2022/09/10 17:23:13;;;;;;;6.93;5.45;;;26.40;99.90;;;;;;4794487;29;20045;-94
2022/09/10 17:25:39;;;;;;;7.57;5.72;;;26.40;99.90;;;;;;4798398;29;20033;-94
2022/09/10 17:28:06;;;;;;;8.52;6.85;;;26.30;99.90;;;;;;4812338;29;20042;-93
2022/09/10 17:30:32;;;;;;;8.98;7.05;;;26.30;99.90;;;;;;4797274;29;20435;-92
2022/09/10 17:32:58;;;;;;;12.25;6.30;;;26.20;99.90;;;;;;4796696;29;20038;-92
2022/09/10 17:35:24;;;;;;;9.38;5.85;;;26.10;99.90;;;;;;4796844;29;20179;-93
2022/09/10 17:37:51;;;;;;;11.02;6.35;;;26.00;99.90;;;;;;4801873;29;20048;-92
2022/09/10 17:40:18;;;;;;;11.27;6.40;;;25.90;99.90;;;;;;4819523;29;20030;-91
2022/09/10 17:42:46;;;;;;;12.27;6.30;;;25.80;99.90;;;;;;4836252;29;20049;-93
2022/09/10 17:45:13;;;;;;;11.18;6.00;;;25.80;99.90;;;;;;4891754;29;20502;-93
2022/09/10 17:47:39;;;;;;;13.23;6.65;;;25.80;99.90;;;;;;4871987;29;20024;-93
2022/09/10 17:50:06;;;;;;;9.13;6.00;;;25.80;99.90;;;;;;4885683;29;20111;-92
2022/09/10 17:52:32;;;;;;;14.05;6.55;;;25.70;99.90;;;;;;4870174;29;20028;-92
2022/09/10 17:54:58;;;;;;;11.95;6.20;;;25.70;99.90;;;;;;4870168;29;20033;-91
2022/09/10 17:57:24;;;;;;;11.50;5.45;;;25.70;99.90;;;;;;4870108;29;20032;-93
2022/09/10 17:59:51;;;;;;;10.98;6.20;;;25.60;99.90;;;;;;4870178;29;20033;-92
2022/09/10 18:02:17;;;;;;;9.82;5.43;;;25.60;99.90;;;;;;4870041;29;20103;-92
2022/09/10 18:04:49;;;;;;;10.40;5.20;;;25.60;99.90;;;;;;4885528;29;20044;-94
2022/09/10 18:07:15;;;;;;;14.13;5.18;;;25.60;99.90;;;;;;4885265;29;20043;-93
2022/09/10 18:09:41;;;;;;;9.90;5.30;;;25.60;99.90;;;;;;4869661;29;20052;-94
2022/09/10 18:12:07;;;;;;;11.75;5.38;;;25.60;99.90;;;;;;4885016;29;20037;-93
2022/09/10 18:14:36;;;;;;;15.70;4.90;;;25.60;99.90;;;;;;4869507;29;20033;-93
2022/09/10 18:17:02;;;;;;;11.93;4.70;;;25.70;99.90;;;;;;4871022;29;20075;-93
2022/09/10 18:19:28;;;;;;;8.13;4.80;;;25.70;99.90;;;;;;4869927;29;20029;-92
2022/09/10 18:21:54;;;;;;;8.82;4.60;;;25.70;99.90;;;;;;4885456;29;20040;-93
2022/09/10 18:24:23;;;;;;;8.32;4.80;;;25.60;99.90;;;;;;4869816;29;20068;-93
2022/09/10 18:26:52;;;;;;;9.85;4.10;;;25.60;99.90;;;;;;4869629;29;20036;-93
2022/09/10 18:29:21;;;;;;;12.07;4.82;;;25.50;99.90;;;;;;4884768;29;20036;-92
2022/09/10 18:31:53;;;;;;;6.90;4.57;;;25.50;99.90;;;;;;4869365;29;20025;-93
2022/09/10 18:34:26;;;;;;;9.07;4.60;;;25.40;99.90;;;;;;4869286;29;20037;-92
2022/09/10 18:36:56;;;;;;;12.63;5.20;;;25.30;99.90;;;;;;4884805;29;20037;-92
2022/09/10 18:39:37;;;;;;;11.48;4.70;;;25.20;99.90;;;;;;4886300;29;20277;-93
2022/09/10 18:42:27;;;;;;;17.23;4.40;;;25.20;99.90;;;;;;4890491;29;20056;-93
2022/09/10 18:45:17;;;;;;;17.45;4.80;;;25.10;99.90;;;;;;4937306;23;20052;-93
2022/09/10 18:47:43;;;;;;;10.07;5.40;;;25.10;99.90;;;;;;4854762;29;20072;-93
2022/09/10 18:50:14;;;;;;;16.00;5.53;;;25.10;99.90;;;;;;4892417;29;20043;-94
2022/09/10 18:52:41;;;;;;;12.95;4.80;;;25.10;99.90;;;;;;4884661;29;20036;-91
2022/09/10 18:55:08;;;;;;;10.85;4.72;;;25.10;99.90;;;;;;4869261;29;20031;-93
2022/09/10 18:57:35;;;;;;;11.30;4.43;;;25.10;99.90;;;;;;4885039;29;20041;-94
2022/09/10 19:00:50;;;;;;;;;;;;;;;;;;;;;
2022/09/10 19:03:45;;;;;;;;;;;;;;;;;;;;;
2022/09/10 19:07:30;;;;;;;;;;;;;;;;;;;;;
2022/09/10 19:15:06;;;;;;;;;;;;;;;;;;;;;
2022/09/10 19:18:19;;;;;;;12.73;4.22;;;24.90;99.90;;;;;;4713116;30;20132;-93
2022/09/10 22:34:51;;;;;;;10.80;3.50;;;24.00;99.90;;;;;;4293726;23;20331;-89
